Time;durP1;ratioP1;P1;durP2;ratioP2;P2;SDS_P1;SDS_P2;PMS_P1;PMS_P2;Temp;Humidity;BMP_temperature;BMP_pressure;BME280_temperature;BME280_humidity;BME280_pressure;Samples;Min_cycle;Max_cycle;Signal;HPM_P1;HPM_P2
2022/08/20 00:01:56;;;;;;;9.47;7.47;;;25.20;99.90;24.80;99918;;;;556822;257;24127;-83
2022/08/20 00:04:24;;;;;;;10.80;7.60;;;25.20;99.90;24.70;99925;;;;558063;252;23127;-83
2022/08/20 00:06:53;;;;;;;11.57;7.23;;;25.10;99.90;24.70;99930;;;;556878;257;24143;-84
2022/08/20 00:09:21;;;;;;;8.27;7.53;;;25.10;99.90;24.70;99921;;;;567133;252;23143;-81
2022/08/20 00:11:49;;;;;;;14.30;7.60;;;25.10;99.90;24.70;99924;;;;547782;257;24213;-81
2022/08/20 00:14:17;;;;;;;14.33;6.90;;;25.10;99.90;24.70;99916;;;;566895;252;23132;-83
2022/08/20 00:16:45;;;;;;;10.50;7.27;;;25.10;99.90;24.70;99927;;;;556925;257;25332;-82
2022/08/20 00:19:12;;;;;;;13.27;7.63;;;25.10;99.90;24.70;99926;;;;567282;252;24097;-83
2022/08/20 00:21:41;;;;;;;10.57;7.67;;;25.10;99.90;24.70;99925;;;;556849;257;23194;-82
2022/08/20 00:24:10;;;;;;;9.60;7.80;;;25.10;99.90;24.70;99931;;;;567319;252;24143;-82
2022/08/20 00:26:38;;;;;;;11.93;7.17;;;25.00;99.90;24.70;99931;;;;548046;257;23181;-81
2022/08/20 00:29:06;;;;;;;8.20;7.40;;;25.10;99.90;24.70;99937;;;;567425;252;24162;-83
2022/08/20 00:31:34;;;;;;;13.57;7.60;;;25.10;99.90;24.70;99930;;;;547923;257;24161;-83
2022/08/20 00:34:01;;;;;;;13.50;8.03;;;25.10;99.90;24.70;99927;;;;566764;252;24129;-83
2022/08/20 00:36:29;;;;;;;8.87;7.60;;;25.10;99.90;24.70;99929;;;;556607;257;23210;-83
2022/08/20 00:38:58;;;;;;;8.93;8.07;;;25.10;99.90;24.60;99917;;;;557737;252;23177;-83
2022/08/20 00:41:29;;;;;;;12.40;7.53;;;25.00;99.90;24.60;99911;;;;547758;256;24143;-83
2022/08/20 00:44:15;;;;;;;10.17;7.97;;;25.10;99.90;24.60;99909;;;;549527;257;24199;-83
2022/08/20 00:46:43;;;;;;;10.20;7.97;;;25.00;99.90;24.50;99912;;;;569616;251;24154;-83
2022/08/20 00:49:17;;;;;;;14.07;8.20;;;24.90;99.90;24.50;99923;;;;549471;257;24146;-83
2022/08/20 00:51:45;;;;;;;9.37;8.40;;;24.90;99.90;24.40;99923;;;;565226;250;24205;-83
2022/08/20 00:54:16;;;;;;;12.57;9.38;;;24.90;99.90;24.40;99926;;;;543146;256;35623;-83
2022/08/20 00:56:45;;;;;;;10.20;8.90;;;24.80;99.90;24.30;99933;;;;565113;252;24170;-83
2022/08/20 00:59:13;;;;;;;10.33;8.20;;;24.80;99.90;24.30;99943;;;;547618;256;24184;-83
2022/08/20 01:01:45;;;;;;;13.13;8.40;;;24.70;99.90;24.20;99936;;;;547638;256;23215;-83
2022/08/20 01:04:11;;;;;;;12.63;8.80;;;24.70;99.90;24.20;99938;;;;549865;257;24216;-83
2022/08/20 01:06:37;;;;;;;16.43;8.57;;;24.60;99.90;24.10;99937;;;;557337;252;23183;-83
2022/08/20 01:09:08;;;;;;;11.67;8.70;;;24.50;99.90;24.00;99917;;;;547511;257;23269;-83
2022/08/20 01:11:34;;;;;;;11.00;9.47;;;24.40;99.90;24.00;99907;;;;557798;254;24162;-83
2022/08/20 01:14:17;;;;;;;10.97;9.97;;;24.40;99.90;24.00;99903;;;;558154;252;24143;-83
2022/08/20 01:16:33;;;;;;;11.80;10.70;;;24.40;99.90;23.90;99902;;;;543492;258;24219;-84
2022/08/20 01:19:01;;;;;;;12.57;11.37;;;24.40;99.90;23.90;99903;;;;543942;258;24173;-83
2022/08/20 01:21:27;;;;;;;15.17;11.77;;;24.30;99.90;23.90;99911;;;;569762;251;23137;-82
2022/08/20 01:24:19;;;;;;;17.90;14.73;;;24.40;99.90;23.90;99908;;;;559171;255;24155;-82
2022/08/20 01:26:47;;;;;;;15.10;13.60;;;24.30;99.90;23.90;99910;;;;560879;251;24112;-82
2022/08/20 01:29:18;;;;;;;15.47;13.83;;;24.30;99.90;23.90;99906;;;;557705;252;24130;-82
2022/08/20 01:31:46;;;;;;;15.53;13.77;;;24.30;99.90;23.80;99913;;;;557532;252;23160;-82
2022/08/20 01:34:14;;;;;;;17.30;14.40;;;24.30;99.90;23.80;99902;;;;547606;256;24138;-82
2022/08/20 01:36:50;;;;;;;16.90;15.27;;;24.30;99.90;23.80;99899;;;;557373;252;24131;-82
2022/08/20 01:39:18;;;;;;;16.97;14.73;;;24.30;99.90;23.80;99903;;;;557252;252;24125;-83
2022/08/20 01:42:18;;;;;;;18.90;14.77;;;24.30;99.90;23.80;99898;;;;568139;252;24190;-82
2022/08/20 01:44:46;;;;;;;16.53;14.50;;;24.20;99.90;23.80;99897;;;;554235;257;24181;-82
2022/08/20 01:47:23;;;;;;;16.83;15.20;;;24.20;99.90;23.80;99898;;;;556598;252;24203;-82
2022/08/20 01:50:00;;;;;;;18.53;15.93;;;24.20;99.90;23.70;99904;;;;550048;257;24125;-82
2022/08/20 01:52:42;;;;;;;18.20;15.47;;;24.20;99.90;23.70;99907;;;;553472;252;24124;-82
2022/08/20 01:55:11;;;;;;;18.60;16.17;;;24.10;99.90;23.60;99911;;;;568241;249;24110;-83
2022/08/20 01:57:43;;;;;;;17.67;15.97;;;24.10;99.90;23.60;99911;;;;556963;255;24186;-82
2022/08/20 02:00:10;;;;;;;18.23;16.40;;;24.00;99.90;23.60;99917;;;;573590;250;24149;-82
2022/08/20 02:02:38;;;;;;;18.80;16.67;;;24.00;99.90;23.50;99914;;;;569062;252;24136;-82
2022/08/20 02:05:06;;;;;;;19.17;17.33;;;24.00;99.90;23.50;99914;;;;557077;254;24137;-83
2022/08/20 02:07:34;;;;;;;19.13;16.93;;;23.90;99.90;23.40;99925;;;;573414;250;24205;-82
2022/08/20 02:10:02;;;;;;;19.07;17.20;;;23.90;99.90;23.40;99924;;;;559063;252;23151;-83
2022/08/20 02:12:30;;;;;;;19.67;17.23;;;23.80;99.90;23.30;99927;;;;556749;252;24170;-83
2022/08/20 02:14:57;;;;;;;22.37;16.33;;;23.80;99.90;23.30;99931;;;;556994;252;24102;-82
2022/08/20 02:17:29;;;;;;;17.97;15.80;;;23.70;99.90;23.20;99921;;;;548816;256;24209;-82
2022/08/20 02:19:53;;;;;;;21.60;16.40;;;23.70;99.90;23.10;99924;;;;554927;257;24166;-82
2022/08/20 02:22:46;;;;;;;18.13;16.40;;;23.60;99.90;23.10;99923;;;;543886;258;24156;-83
2022/08/20 02:25:14;;;;;;;18.90;16.90;;;23.50;99.90;23.00;99923;;;;557943;255;24066;-83
2022/08/20 02:27:42;;;;;;;18.37;16.37;;;23.50;99.90;23.00;99918;;;;557986;252;23175;-83
2022/08/20 02:30:11;;;;;;;18.57;16.67;;;23.40;99.90;22.90;99912;;;;557953;252;24102;-82
2022/08/20 02:32:38;;;;;;;19.43;15.57;;;23.40;99.90;22.90;99914;;;;568426;250;24122;-83
2022/08/20 02:35:13;;;;;;;17.37;14.90;;;23.40;99.90;22.90;99923;;;;568223;251;24097;-83
2022/08/20 02:37:38;;;;;;;20.57;16.20;;;23.40;99.90;22.90;99927;;;;567697;250;24137;-83
2022/08/20 02:40:06;;;;;;;18.67;15.60;;;23.30;99.90;22.90;99923;;;;556176;251;24140;-83
2022/08/20 02:42:33;;;;;;;19.60;15.77;;;23.30;99.90;22.80;99925;;;;568077;252;25303;-83
2022/08/20 02:45:01;;;;;;;18.60;15.33;;;23.30;99.90;22.80;99936;;;;568224;252;24100;-82
2022/08/20 02:47:29;;;;;;;19.97;17.90;;;23.30;99.90;22.70;99935;;;;568182;252;24109;-83
2022/08/20 02:49:58;;;;;;;18.70;16.97;;;23.20;99.90;22.70;99944;;;;568479;252;24180;-82
2022/08/20 02:52:26;;;;;;;18.73;16.17;;;23.10;99.90;22.70;99957;;;;556199;255;24142;-82
2022/08/20 02:54:55;;;;;;;17.93;16.33;;;23.10;99.90;22.60;99951;;;;572637;249;24137;-82
2022/08/20 02:57:24;;;;;;;20.60;18.70;;;23.10;99.90;22.60;99951;;;;543756;256;35519;-82
2022/08/20 02:59:52;;;;;;;18.27;16.13;;;23.10;99.90;22.60;99958;;;;557565;257;24127;-82
2022/08/20 03:02:20;;;;;;;19.03;15.60;;;23.10;99.90;22.60;99960;;;;557197;252;24114;-82
2022/08/20 03:04:48;;;;;;;18.93;15.77;;;23.10;99.90;22.60;99961;;;;556173;255;24154;-82
2022/08/20 03:07:16;;;;;;;19.80;15.53;;;23.00;99.90;22.60;99955;;;;564625;252;24146;-82
2022/08/20 03:09:44;;;;;;;18.63;15.77;;;23.10;99.90;22.60;99961;;;;558440;250;24143;-82
2022/08/20 03:12:13;;;;;;;21.80;15.40;;;23.00;99.90;22.60;99965;;;;557184;252;24145;-82
2022/08/20 03:14:40;;;;;;;17.60;15.83;;;23.00;99.90;22.60;99966;;;;565750;252;24131;-82
2022/08/20 03:17:08;;;;;;;20.00;16.63;;;23.10;99.90;22.60;99963;;;;549287;256;24111;-83
2022/08/20 03:19:36;;;;;;;20.13;16.47;;;23.10;99.90;22.60;99966;;;;554353;256;23191;-83
2022/08/20 03:22:04;;;;;;;20.47;16.07;;;23.00;99.90;22.50;99975;;;;549443;256;24100;-83
2022/08/20 03:24:32;;;;;;;19.40;16.37;;;23.00;99.90;22.60;99970;;;;554412;256;24126;-83
2022/08/20 03:27:00;;;;;;;18.47;16.00;;;23.00;99.90;22.50;99963;;;;549346;256;24099;-82
2022/08/20 03:29:28;;;;;;;17.03;15.03;;;23.00;99.90;22.50;99972;;;;554161;257;24177;-83
2022/08/20 03:31:55;;;;;;;18.40;14.83;;;23.00;99.90;22.50;99982;;;;549005;256;24157;-83
2022/08/20 03:34:23;;;;;;;18.67;15.77;;;23.00;99.90;22.50;99983;;;;553837;257;24138;-83
2022/08/20 03:36:51;;;;;;;17.57;14.90;;;23.00;99.90;22.50;99983;;;;548754;256;24183;-83
2022/08/20 03:39:19;;;;;;;19.57;15.67;;;22.90;99.90;22.50;99983;;;;553824;257;24133;-83
2022/08/20 03:41:48;;;;;;;16.23;14.53;;;22.90;99.90;22.50;99983;;;;548722;256;24198;-83
2022/08/20 03:44:16;;;;;;;15.93;14.53;;;22.90;99.90;22.50;99993;;;;553851;257;24151;-83
2022/08/20 03:46:44;;;;;;;15.20;13.77;;;22.90;99.90;22.50;99996;;;;548543;256;24135;-82
2022/08/20 03:49:12;;;;;;;15.17;13.63;;;23.00;99.90;22.50;100002;;;;557899;257;24132;-83
2022/08/20 03:51:40;;;;;;;16.20;14.10;;;22.90;99.90;22.50;99993;;;;568278;252;24130;-83
2022/08/20 03:54:08;;;;;;;17.97;15.00;;;22.90;99.90;22.50;99992;;;;556158;254;24185;-83
2022/08/20 03:56:36;;;;;;;16.17;14.07;;;22.90;99.90;22.50;99991;;;;564944;251;24128;-83
2022/08/20 03:59:04;;;;;;;15.60;14.00;;;22.90;99.90;22.50;99996;;;;548618;256;23151;-83
2022/08/20 04:01:35;;;;;;;15.50;14.00;;;22.90;99.90;22.50;100004;;;;553615;257;24125;-82
2022/08/20 04:04:00;;;;;;;16.90;14.73;;;22.90;99.90;22.40;99998;;;;568265;250;24128;-83
2022/08/20 04:06:28;;;;;;;16.73;15.07;;;22.90;99.90;22.40;99990;;;;560176;252;24097;-82
2022/08/20 04:08:56;;;;;;;17.13;15.33;;;22.90;99.90;22.40;99999;;;;568545;252;25194;-83
2022/08/20 04:11:26;;;;;;;16.60;14.60;;;22.90;99.90;22.50;100001;;;;560174;252;24119;-83
2022/08/20 04:13:54;;;;;;;17.30;15.53;;;22.90;99.90;22.50;100009;;;;568494;252;24164;-83
2022/08/20 04:16:22;;;;;;;19.63;14.93;;;22.90;99.90;22.50;100016;;;;568545;252;24172;-83
2022/08/20 04:18:50;;;;;;;16.73;13.40;;;23.00;99.90;22.50;100011;;;;568296;252;24128;-83
2022/08/20 04:21:19;;;;;;;18.13;13.57;;;23.00;99.90;22.50;100018;;;;569276;251;24168;-83
2022/08/20 04:23:48;;;;;;;15.17;13.67;;;23.00;99.90;22.50;100014;;;;569235;251;24174;-83
2022/08/20 04:26:16;;;;;;;19.13;14.20;;;23.00;99.90;22.50;100026;;;;569054;252;24109;-82
2022/08/20 04:28:45;;;;;;;17.27;15.40;;;22.90;99.90;22.50;100027;;;;568935;252;24150;-83
2022/08/20 04:31:13;;;;;;;21.13;15.80;;;22.90;99.90;22.40;100027;;;;568839;252;24189;-84
2022/08/20 04:33:42;;;;;;;20.33;17.27;;;22.80;99.90;22.30;100020;;;;568664;252;23148;-83
2022/08/20 04:36:09;;;;;;;18.73;16.93;;;22.70;99.90;22.20;100022;;;;568874;252;24237;-83
2022/08/20 04:38:37;;;;;;;19.20;16.83;;;22.60;99.90;22.10;100031;;;;568597;252;24138;-84
2022/08/20 04:41:05;;;;;;;21.23;16.60;;;22.60;99.90;22.10;100026;;;;568305;252;24104;-84
2022/08/20 04:43:33;;;;;;;20.23;17.40;;;22.60;99.90;22.10;100014;;;;568565;251;24180;-83
2022/08/20 04:46:08;;;;;;;22.83;19.77;;;22.60;99.90;22.10;100015;;;;556831;252;24174;-83
2022/08/20 04:48:37;;;;;;;23.60;21.30;;;22.60;99.90;22.20;100013;;;;556837;252;24109;-83
2022/08/20 04:51:03;;;;;;;22.13;19.93;;;22.60;99.90;22.20;100020;;;;568287;251;24122;-83
2022/08/20 04:53:32;;;;;;;24.33;21.60;;;22.70;99.90;22.20;100023;;;;568550;252;24104;-83
2022/08/20 04:56:00;;;;;;;24.17;21.73;;;22.70;99.90;22.20;100013;;;;568397;252;24143;-83
2022/08/20 04:58:35;;;;;;;24.10;21.47;;;22.70;99.90;22.30;100010;;;;567992;251;24122;-83
2022/08/20 05:01:03;;;;;;;25.37;22.40;;;22.70;99.90;22.30;100009;;;;568224;252;24135;-84
2022/08/20 05:03:31;;;;;;;25.80;23.00;;;22.80;99.90;22.40;100006;;;;567999;251;24105;-83
2022/08/20 05:06:00;;;;;;;25.33;22.77;;;22.90;99.90;22.50;100006;;;;556933;252;24133;-83
2022/08/20 05:08:28;;;;;;;29.27;23.83;;;23.10;99.90;22.60;100011;;;;553813;252;24133;-85
2022/08/20 05:10:56;;;;;;;25.63;22.93;;;23.10;99.90;22.70;100007;;;;560154;252;24153;-82
2022/08/20 05:13:23;;;;;;;25.23;22.57;;;23.20;99.90;22.70;100006;;;;568541;251;24161;-83
2022/08/20 05:15:52;;;;;;;27.37;24.43;;;23.30;99.90;22.80;100005;;;;553833;252;24160;-83
2022/08/20 05:18:20;;;;;;;27.93;25.23;;;23.30;99.90;22.90;100004;;;;564640;252;23144;-84
2022/08/20 05:20:48;;;;;;;26.63;24.00;;;23.40;99.90;23.00;100004;;;;568107;251;24181;-84
2022/08/20 05:23:16;;;;;;;27.20;24.40;;;23.50;99.90;23.10;100002;;;;559482;252;24125;-84
2022/08/20 05:25:43;;;;;;;29.03;25.93;;;23.60;99.90;23.30;100008;;;;568161;252;24148;-84
2022/08/20 05:28:11;;;;;;;27.63;24.93;;;23.70;99.90;23.40;100007;;;;556695;252;24110;-84
2022/08/20 05:30:42;;;;;;;27.00;24.47;;;23.90;99.90;23.60;100006;;;;568223;251;24135;-83
2022/08/20 05:33:11;;;;;;;28.03;25.10;;;24.00;99.90;23.70;99992;;;;560666;251;23145;-85
2022/08/20 05:35:37;;;;;;;26.00;23.37;;;24.20;99.90;23.90;99992;;;;558171;251;24105;-84
2022/08/20 05:38:03;;;;;;;25.17;22.67;;;24.40;99.90;24.00;99996;;;;560505;252;24124;-84
2022/08/20 05:40:31;;;;;;;26.80;24.10;;;24.50;99.90;24.20;99992;;;;560904;251;24131;-83
2022/08/20 05:42:59;;;;;;;26.13;23.30;;;24.70;99.90;24.30;100002;;;;568759;252;23169;-83
2022/08/20 05:45:29;;;;;;;27.53;23.67;;;25.00;99.90;24.40;99998;;;;568585;249;23165;-82
2022/08/20 05:47:57;;;;;;;26.00;23.20;;;24.90;99.90;24.50;99993;;;;556659;252;23150;-82
2022/08/20 05:50:24;;;;;;;25.47;23.00;;;25.00;99.90;24.50;99994;;;;565050;251;24137;-83
2022/08/20 05:52:52;;;;;;;25.77;23.00;;;25.00;99.90;24.60;99995;;;;548793;256;23130;-83
2022/08/20 05:55:24;;;;;;;25.27;22.70;;;25.10;99.90;24.70;100003;;;;553718;257;23200;-84
2022/08/20 05:57:55;;;;;;;25.37;22.83;;;25.30;99.90;24.80;99999;;;;560750;252;23165;-82
2022/08/20 06:00:18;;;;;;;25.03;22.70;;;25.30;99.90;24.90;99999;;;;556422;256;23204;-83
2022/08/20 06:05:33;;;;;;;23.90;21.60;;;25.50;99.90;25.00;100002;;;;568430;252;24081;-83
2022/08/20 06:08:00;;;;;;;22.70;20.40;;;25.50;99.90;25.00;100000;;;;568635;252;23173;-83
2022/08/20 06:10:28;;;;;;;24.03;21.43;;;25.50;99.90;25.00;99993;;;;564548;252;23171;-83
2022/08/20 06:12:56;;;;;;;25.13;22.67;;;25.50;99.90;25.00;99988;;;;556542;256;23190;-83
2022/08/20 06:15:24;;;;;;;25.47;22.70;;;25.50;99.90;25.20;99984;;;;573162;249;23162;-84
2022/08/20 06:17:52;;;;;;;25.23;22.60;;;25.60;99.90;25.40;99986;;;;568547;251;24131;-83
2022/08/20 06:20:20;;;;;;;26.50;23.67;;;25.80;99.90;25.70;99988;;;;556266;254;23177;-83
2022/08/20 06:22:49;;;;;;;26.60;24.00;;;26.10;99.90;26.20;99994;;;;564868;252;26381;-84
2022/08/20 06:25:17;;;;;;;25.60;23.20;;;26.50;99.90;26.60;99997;;;;548457;256;23132;-84
2022/08/20 06:27:45;;;;;;;26.67;23.70;;;27.00;99.90;26.80;100008;;;;553629;257;23226;-83
2022/08/20 06:30:13;;;;;;;29.03;23.63;;;27.20;99.90;26.70;99998;;;;564234;252;23115;-83
2022/08/20 06:32:44;;;;;;;28.53;25.57;;;27.30;99.90;26.70;100007;;;;568144;252;23151;-83
2022/08/20 06:35:09;;;;;;;27.00;24.33;;;27.20;99.90;26.80;100005;;;;568113;250;23171;-83
2022/08/20 06:37:37;;;;;;;26.37;23.87;;;27.30;99.90;27.00;100014;;;;568288;251;23150;-84
2022/08/20 06:40:13;;;;;;;28.57;25.60;;;27.40;99.90;27.30;100008;;;;556648;252;23157;-84
2022/08/20 06:42:45;;;;;;;28.97;25.67;;;27.60;99.90;27.40;100004;;;;557045;252;23198;-83
2022/08/20 06:45:10;;;;;;;27.37;24.60;;;27.90;99.90;27.50;100010;;;;569591;251;23153;-84
2022/08/20 06:47:41;;;;;;;28.63;24.73;;;27.90;99.90;27.50;100010;;;;558778;251;23226;-84
2022/08/20 06:50:09;;;;;;;26.70;24.27;;;27.90;99.90;27.40;100006;;;;554678;256;23159;-84
2022/08/20 06:52:38;;;;;;;27.90;25.27;;;27.90;99.90;27.30;100009;;;;557955;252;24187;-85
2022/08/20 06:55:05;;;;;;;27.73;24.17;;;27.90;99.90;27.20;100019;;;;568854;251;24159;-84
2022/08/20 06:57:34;;;;;;;28.27;25.37;;;27.80;99.90;27.10;100016;;;;557940;252;23181;-84
2022/08/20 07:00:02;;;;;;;28.20;25.40;;;27.60;99.90;26.90;100017;;;;568983;252;23136;-84
2022/08/20 07:02:30;;;;;;;26.70;23.87;;;27.50;99.90;26.70;100026;;;;564598;252;23154;-84
2022/08/20 07:04:58;;;;;;;27.10;24.27;;;27.30;99.90;26.60;100022;;;;568356;252;24115;-83
2022/08/20 07:07:26;;;;;;;25.83;23.23;;;27.10;99.90;26.40;100033;;;;568457;252;24106;-85
2022/08/20 07:10:08;;;;;;;28.52;25.70;;;27.00;99.90;26.40;100023;;;;563809;252;35367;-84
2022/08/20 07:12:36;;;;;;;24.87;22.67;;;26.90;99.90;26.20;100031;;;;554038;252;23215;-84
2022/08/20 07:15:07;;;;;;;24.27;22.17;;;26.70;99.90;26.10;100038;;;;568846;252;23126;-84
2022/08/20 07:17:39;;;;;;;23.60;21.30;;;26.60;99.90;26.00;100033;;;;560436;252;23141;-84
2022/08/20 07:20:07;;;;;;;24.03;19.67;;;26.40;99.90;25.80;100042;;;;544277;256;23158;-84
2022/08/20 07:22:35;;;;;;;23.63;20.10;;;26.20;99.90;25.70;100042;;;;558363;252;23138;-84
2022/08/20 07:25:06;;;;;;;26.50;20.03;;;26.10;99.90;25.40;100052;;;;568146;252;24143;-83
2022/08/20 07:27:34;;;;;;;19.97;16.83;;;25.70;99.90;25.20;100053;;;;556597;252;23168;-83
2022/08/20 07:32:48;;;;;;;24.47;15.43;;;25.50;99.90;24.90;100038;;;;557143;252;23202;-83
2022/08/20 07:35:16;;;;;;;15.57;13.93;;;25.40;99.90;24.80;100037;;;;568298;252;23140;-83
2022/08/20 07:37:45;;;;;;;19.77;13.23;;;25.30;99.90;24.80;100046;;;;568258;252;23151;-83
2022/08/20 07:40:12;;;;;;;15.80;12.70;;;25.20;99.90;24.80;100049;;;;568028;252;23178;-82
2022/08/20 07:42:40;;;;;;;15.77;11.93;;;25.20;99.90;24.80;100044;;;;567328;250;24183;-83
2022/08/20 07:45:09;;;;;;;17.80;11.67;;;25.20;99.90;24.80;100053;;;;556747;252;25273;-82
2022/08/20 07:47:36;;;;;;;14.83;11.53;;;25.30;99.90;24.80;100049;;;;568130;252;23135;-83
2022/08/20 07:50:04;;;;;;;13.40;10.77;;;25.20;99.90;24.80;100056;;;;560213;252;24184;-82
2022/08/20 07:52:36;;;;;;;14.43;9.53;;;25.20;99.90;24.80;100055;;;;547393;256;23207;-83
2022/08/20 07:55:01;;;;;;;13.40;8.00;;;25.20;99.90;24.90;100052;;;;573029;248;24116;-82
2022/08/20 07:57:28;;;;;;;16.33;10.00;;;25.30;99.90;25.00;100068;;;;548946;256;24326;-82
2022/08/20 07:59:57;;;;;;;17.67;10.57;;;25.40;99.90;25.20;100064;;;;569233;252;23134;-83
2022/08/20 08:02:24;;;;;;;14.17;9.50;;;25.60;99.90;25.40;100067;;;;569109;252;24124;-83
2022/08/20 08:04:52;;;;;;;15.73;9.90;;;25.80;99.90;25.80;100065;;;;550134;256;24213;-82
2022/08/20 08:07:20;;;;;;;13.63;8.63;;;26.10;99.90;27.00;100068;;;;557833;252;23229;-81
2022/08/20 08:09:48;;;;;;;14.77;9.73;;;27.10;99.90;29.20;100068;;;;559471;252;23177;-83
2022/08/20 08:12:16;;;;;;;12.70;8.70;;;29.10;99.90;31.00;100074;;;;548063;253;23155;-83
2022/08/20 08:14:44;;;;;;;11.30;8.05;;;31.10;99.90;31.80;100078;;;;568524;252;23130;-83
2022/08/20 08:17:12;;;;;;;13.50;8.30;;;32.20;99.90;32.00;100078;;;;554133;257;23196;-82
2022/08/20 08:19:40;;;;;;;9.38;8.40;;;33.10;99.90;32.50;100080;;;;560496;252;23137;-84
2022/08/20 08:22:12;;;;;;;12.35;8.93;;;33.10;99.90;32.30;100078;;;;547890;257;23212;-83
2022/08/20 08:24:43;;;;;;;14.45;8.85;;;32.90;99.90;32.20;100091;;;;557202;252;24132;-82
2022/08/20 08:27:09;;;;;;;8.98;8.07;;;32.80;99.90;32.10;100089;;;;558271;252;23139;-83
2022/08/20 08:29:38;;;;;;;9.45;8.02;;;32.50;99.90;31.70;100083;;;;558303;256;24187;-80
2022/08/20 08:32:06;;;;;;;16.23;8.90;;;32.00;99.90;31.20;100082;;;;557583;252;24156;-82
2022/08/20 08:34:38;;;;;;;13.45;8.80;;;31.60;99.90;30.90;100089;;;;557793;247;23170;-83
2022/08/20 08:37:04;;;;;;;12.82;9.50;;;31.20;99.90;30.50;100089;;;;548434;257;24167;-84
2022/08/20 08:39:32;;;;;;;15.10;9.95;;;31.20;99.90;30.00;100092;;;;558254;252;23139;-83
2022/08/20 08:42:02;;;;;;;11.27;9.32;;;30.80;99.90;29.60;100088;;;;547685;257;23179;-84
2022/08/20 08:44:35;;;;;;;18.40;10.65;;;30.40;99.90;29.40;100097;;;;558109;256;23150;-83
2022/08/20 08:47:17;;;;;;;12.32;11.00;;;30.00;99.90;29.10;100098;;;;557349;252;24136;-83
2022/08/20 08:49:39;;;;;;;15.07;11.10;;;29.70;99.90;28.80;100089;;;;567765;252;23115;-84
2022/08/20 08:52:17;;;;;;;13.93;11.85;;;29.40;99.90;28.80;100081;;;;568256;249;23143;-84
2022/08/20 08:54:44;;;;;;;13.77;11.55;;;29.30;99.90;28.80;100082;;;;568084;251;23161;-84
2022/08/20 08:57:12;;;;;;;12.63;10.75;;;29.20;99.90;29.00;100080;;;;568106;250;23205;-83
2022/08/20 08:59:40;;;;;;;16.25;11.68;;;29.40;99.90;29.20;100085;;;;568302;252;23142;-83
2022/08/20 09:02:09;;;;;;;15.27;10.65;;;29.60;99.90;29.40;100086;;;;568175;252;23127;-83
2022/08/20 09:04:36;;;;;;;16.00;11.55;;;29.80;99.90;29.50;100084;;;;568355;252;23123;-83
2022/08/20 09:07:03;;;;;;;16.25;11.73;;;29.90;99.90;29.50;100076;;;;568854;251;23150;-82
2022/08/20 09:09:31;;;;;;;13.32;11.63;;;30.00;99.90;29.50;100081;;;;569287;249;23187;-83
2022/08/20 09:12:08;;;;;;;13.00;11.00;;;30.00;99.90;29.50;100079;;;;569031;250;23134;-83
2022/08/20 09:14:39;;;;;;;11.93;9.85;;;30.00;99.90;29.60;100069;;;;569350;252;23137;-84
2022/08/20 09:17:08;;;;;;;12.05;10.77;;;30.10;99.90;29.80;100082;;;;548370;256;23201;-83
2022/08/20 09:19:33;;;;;;;12.57;11.15;;;30.40;99.90;30.00;100074;;;;554349;252;24145;-83
2022/08/20 09:22:07;;;;;;;10.02;8.68;;;30.40;99.90;30.10;100083;;;;568851;252;23195;-83
2022/08/20 09:24:35;;;;;;;11.15;8.98;;;30.50;99.90;30.20;100079;;;;549826;257;23159;-83
2022/08/20 09:27:04;;;;;;;12.32;9.27;;;30.70;99.90;30.30;100077;;;;568612;249;23122;-84
2022/08/20 09:29:32;;;;;;;10.55;9.25;;;30.90;99.90;30.60;100073;;;;552820;252;35872;-84
2022/08/20 09:32:07;;;;;;;11.65;8.43;;;31.20;99.90;30.80;100074;;;;547438;257;24225;-85
2022/08/20 09:34:41;;;;;;;11.57;8.15;;;31.10;99.90;31.20;100066;;;;568854;252;23171;-84
2022/08/20 09:37:09;;;;;;;9.63;8.63;;;31.50;99.90;31.70;100068;;;;563758;252;35540;-82
2022/08/20 09:39:36;;;;;;;9.93;8.43;;;32.00;99.90;31.90;100068;;;;560460;252;23113;-82
2022/08/20 09:42:10;;;;;;;10.32;9.27;;;32.20;99.90;32.10;100063;;;;557924;252;23150;-82
2022/08/20 09:44:38;;;;;;;12.70;9.18;;;32.50;99.90;32.30;100064;;;;568205;250;24149;-83
2022/08/20 09:47:09;;;;;;;9.52;8.63;;;32.70;99.90;32.70;100064;;;;557834;252;23181;-82
2022/08/20 09:49:36;;;;;;;12.80;8.73;;;33.00;99.90;32.80;100063;;;;557881;257;23209;-83
2022/08/20 09:52:02;;;;;;;10.32;8.57;;;33.30;99.80;33.00;100070;;;;557729;252;23129;-83
2022/08/20 09:54:33;;;;;;;9.35;7.87;;;33.40;99.50;33.20;100070;;;;547608;257;23178;-84
2022/08/20 09:57:01;;;;;;;11.12;7.87;;;33.60;99.00;33.40;100069;;;;555814;252;25229;-83
2022/08/20 09:59:26;;;;;;;12.80;8.35;;;33.80;98.40;33.40;100063;;;;557778;252;23128;-83
2022/08/20 10:01:53;;;;;;;10.70;8.48;;;33.90;97.10;33.30;100066;;;;558113;256;23156;-83
2022/08/20 10:04:21;;;;;;;11.63;9.20;;;33.80;96.80;33.10;100065;;;;568538;252;24196;-84
2022/08/20 10:06:49;;;;;;;11.00;8.75;;;33.70;96.80;33.30;100067;;;;547624;257;23202;-83
2022/08/20 10:09:17;;;;;;;8.80;8.00;;;33.70;97.30;33.50;100070;;;;568639;252;23181;-84
2022/08/20 10:11:45;;;;;;;9.98;8.65;;;33.90;97.20;33.70;100069;;;;547840;257;24202;-84
2022/08/20 10:14:13;;;;;;;9.57;8.55;;;34.10;96.60;33.90;100067;;;;568783;252;23107;-84
2022/08/20 10:16:41;;;;;;;11.02;9.95;;;34.30;96.20;34.20;100063;;;;547465;257;24222;-85
2022/08/20 10:19:09;;;;;;;11.63;9.38;;;34.50;95.30;34.10;100064;;;;569516;250;23136;-84
2022/08/20 10:21:37;;;;;;;13.10;9.88;;;34.60;94.00;33.90;100070;;;;549225;256;23143;-82
2022/08/20 10:24:05;;;;;;;9.50;8.57;;;34.40;94.20;34.10;100074;;;;569581;252;23146;-83
2022/08/20 10:26:33;;;;;;;12.48;9.38;;;34.50;94.40;34.70;100077;;;;548530;256;24181;-83
2022/08/20 10:29:01;;;;;;;14.35;9.70;;;35.00;94.40;35.20;100067;;;;569250;252;24118;-83
2022/08/20 10:31:28;;;;;;;9.68;8.65;;;35.60;92.70;35.40;100068;;;;548203;256;23163;-83
2022/08/20 10:33:57;;;;;;;11.65;9.43;;;35.90;91.50;35.50;100075;;;;568918;252;23144;-84
2022/08/20 10:36:24;;;;;;;9.63;8.65;;;36.00;90.80;35.40;100061;;;;547994;257;23206;-84
2022/08/20 10:38:52;;;;;;;9.65;8.82;;;36.00;90.70;35.70;100057;;;;568688;249;23114;-83
2022/08/20 10:41:21;;;;;;;11.90;9.35;;;36.10;90.70;36.10;100052;;;;547682;257;23166;-83
2022/08/20 10:43:51;;;;;;;11.80;8.98;;;36.40;90.90;36.40;100051;;;;568590;252;23154;-83
2022/08/20 10:46:16;;;;;;;10.18;8.93;;;36.80;90.00;36.70;100054;;;;558001;257;23198;-83
2022/08/20 10:48:44;;;;;;;13.55;9.00;;;37.00;88.90;36.80;100056;;;;568764;252;24132;-83
2022/08/20 10:51:12;;;;;;;11.10;8.75;;;37.20;87.80;36.80;100059;;;;557841;252;23134;-84
2022/08/20 10:53:40;;;;;;;10.18;9.15;;;37.20;86.50;36.70;100051;;;;547623;257;24156;-83
2022/08/20 10:56:08;;;;;;;11.38;9.23;;;37.20;86.30;36.60;100047;;;;559623;252;23169;-84
2022/08/20 10:58:36;;;;;;;9.43;8.55;;;37.00;86.00;36.40;100047;;;;547458;257;23223;-84
2022/08/20 11:01:03;;;;;;;9.70;8.75;;;36.90;85.90;36.20;100054;;;;568503;252;23122;-84
2022/08/20 11:03:31;;;;;;;10.43;9.40;;;36.60;85.80;36.10;100056;;;;547454;257;23263;-84
2022/08/20 11:05:59;;;;;;;13.18;9.43;;;36.50;86.60;36.00;100064;;;;568243;249;23181;-83
2022/08/20 11:08:27;;;;;;;10.60;9.60;;;36.40;87.30;36.10;100070;;;;547456;257;23157;-84
2022/08/20 11:10:55;;;;;;;12.48;9.68;;;36.50;87.10;36.30;100065;;;;568326;249;23119;-83
2022/08/20 11:13:23;;;;;;;13.23;9.48;;;36.60;85.50;36.30;100063;;;;547552;257;23143;-84